Time;durP1;ratioP1;P1;durP2;ratioP2;P2;SDS_P1;SDS_P2;PMS_P1;PMS_P2;Temp;Humidity;BMP_temperature;BMP_pressure;BME280_temperature;BME280_humidity;BME280_pressure;Samples;Min_cycle;Max_cycle;Signal;HPM_P1;HPM_P2
2021/07/18 00:02:47;;;;;;;20.17;13.30;;;;;;;23.41;81.24;99362.77;1749587;82;21621;-79
2021/07/18 00:05:53;;;;;;;25.62;13.38;;;;;;;23.37;81.33;99370.88;1750365;82;21220;-79
2021/07/18 00:08:59;;;;;;;17.92;12.63;;;;;;;23.31;81.61;99362.25;1750285;82;21336;-79
2021/07/18 00:12:04;;;;;;;24.47;12.75;;;;;;;23.26;81.89;99354.45;1749388;82;21219;-79
2021/07/18 00:15:13;;;;;;;26.27;14.07;;;;;;;23.24;82.04;99358.91;1750894;82;21200;-80
2021/07/18 00:18:19;;;;;;;25.00;14.15;;;;;;;23.24;82.20;99361.69;1750892;82;21299;-79
2021/07/18 00:21:25;;;;;;;28.60;13.58;;;;;;;23.24;82.20;99355.28;1750288;82;21228;-78
2021/07/18 00:24:30;;;;;;;26.77;13.60;;;;;;;23.21;82.09;99362.28;1750904;82;21168;-79
2021/07/18 00:27:35;;;;;;;21.75;13.40;;;;;;;23.18;82.28;99358.64;1750834;82;21838;-79
2021/07/18 00:30:41;;;;;;;22.77;14.25;;;;;;;23.13;82.46;99358.09;1750935;82;21307;-78
2021/07/18 00:33:47;;;;;;;23.02;13.90;;;;;;;23.10;82.63;99360.08;1750889;82;21521;-79
2021/07/18 00:36:52;;;;;;;22.73;13.88;;;;;;;23.07;82.84;99363.42;1749990;82;21215;-79
2021/07/18 00:39:58;;;;;;;24.77;14.83;;;;;;;23.04;83.02;99366.76;1749491;82;21196;-79
2021/07/18 00:43:04;;;;;;;18.98;13.68;;;;;;;23.00;83.15;99365.64;1750865;82;21501;-80
2021/07/18 00:46:09;;;;;;;21.75;14.83;;;;;;;22.94;83.39;99363.42;1749392;81;21196;-79
2021/07/18 00:49:16;;;;;;;26.05;14.90;;;;;;;22.88;83.56;99366.48;1750557;82;21222;-80
2021/07/18 00:52:22;;;;;;;23.83;14.55;;;;;;;22.83;83.87;99363.70;1749068;82;21271;-79
2021/07/18 00:55:28;;;;;;;22.85;15.25;;;;;;;22.78;84.13;99367.33;1750571;82;21366;-79
2021/07/18 00:58:37;;;;;;;27.20;14.98;;;;;;;22.76;84.33;99362.57;1750589;82;21774;-79
2021/07/18 01:01:43;;;;;;;27.50;14.40;;;;;;;22.74;84.46;99362.59;1751596;82;21338;-79
2021/07/18 01:04:49;;;;;;;27.58;14.90;;;;;;;22.74;84.62;99368.16;1750635;82;21629;-79
2021/07/18 01:07:55;;;;;;;24.07;15.65;;;;;;;22.74;84.56;99363.42;1749453;82;21374;-79
2021/07/18 01:11:01;;;;;;;29.25;14.93;;;;;;;22.75;84.60;99365.64;1749069;81;21271;-79
2021/07/18 01:14:08;;;;;;;21.60;14.68;;;;;;;22.73;84.56;99358.97;1749163;82;21858;-79
2021/07/18 01:17:14;;;;;;;25.15;15.88;;;;;;;22.75;84.51;99358.67;1750661;82;21311;-79
2021/07/18 01:20:21;;;;;;;27.90;16.60;;;;;;;22.76;84.47;99367.31;1749936;82;21303;-79
2021/07/18 01:23:28;;;;;;;27.13;15.93;;;;;;;22.73;84.40;99367.33;1751260;82;21901;-80
2021/07/18 01:26:34;;;;;;;27.52;15.75;;;;;;;22.65;84.59;99362.30;1750648;82;21329;-79
2021/07/18 01:29:39;;;;;;;24.75;15.60;;;;;;;22.61;84.88;99363.97;1750474;82;21373;-79
2021/07/18 01:32:44;;;;;;;23.35;15.70;;;;;;;22.60;84.99;99365.09;1750705;82;21315;-79
2021/07/18 01:35:50;;;;;;;31.17;16.80;;;;;;;22.59;85.02;99364.26;1750686;82;21307;-80
2021/07/18 01:38:56;;;;;;;24.92;16.62;;;;;;;22.58;85.16;99365.34;1750709;82;21924;-79
2021/07/18 01:42:06;;;;;;;29.77;17.77;;;;;;;22.53;85.35;99365.34;1750775;82;21905;-79
2021/07/18 01:45:14;;;;;;;29.27;18.70;;;;;;;22.50;85.59;99367.31;1749191;81;21228;-80
2021/07/18 01:48:19;;;;;;;28.98;17.25;;;;;;;22.48;85.89;99369.53;1751232;82;21303;-79
2021/07/18 01:51:30;;;;;;;36.68;18.23;;;;;;;22.47;86.02;99367.86;1749481;82;21647;-80
2021/07/18 01:54:36;;;;;;;29.35;18.07;;;;;;;22.47;86.14;99369.81;1749750;82;21330;-79
2021/07/18 01:57:42;;;;;;;26.07;17.55;;;;;;;22.46;86.20;99360.63;1750886;82;21184;-79
2021/07/18 02:00:47;;;;;;;28.90;16.90;;;;;;;22.46;86.24;99368.98;1750351;82;21393;-79
2021/07/18 02:03:52;;;;;;;26.20;18.32;;;;;;;22.48;86.22;99360.34;1750934;82;21303;-80
2021/07/18 02:06:58;;;;;;;32.00;18.87;;;;;;;22.48;86.24;99365.34;1751015;82;21302;-79
2021/07/18 02:10:04;;;;;;;32.10;19.65;;;;;;;22.49;86.22;99374.54;1749456;82;21326;-80
2021/07/18 02:13:18;;;;;;;38.65;19.27;;;;;;;22.49;86.13;99375.41;1750959;82;21291;-80
2021/07/18 02:16:23;;;;;;;32.78;19.50;;;;;;;22.51;86.12;99385.70;1599896;89;21331;-79
2021/07/18 02:19:29;;;;;;;37.25;21.12;;;;;;;22.54;85.96;99380.98;1599946;89;21866;-79
2021/07/18 02:22:56;;;;;;;31.77;21.75;;;;;;;22.55;85.85;99378.47;1599829;89;21748;-79
2021/07/18 02:26:02;;;;;;;33.90;22.17;;;;;;;22.62;85.79;99379.57;1598514;89;21236;-79
2021/07/18 02:29:08;;;;;;;39.70;19.42;;;;;;;22.74;85.50;99376.52;1599517;89;22658;-79
2021/07/18 02:32:15;;;;;;;32.25;20.40;;;;;;;22.87;84.94;99373.18;1598613;89;21386;-79
2021/07/18 02:35:23;;;;;;;34.43;20.52;;;;;;;23.02;84.39;99379.33;1598673;89;21846;-79
2021/07/18 02:38:28;;;;;;;33.05;21.27;;;;;;;23.20;83.65;99380.97;1600014;89;21411;-80
2021/07/18 02:41:35;;;;;;;34.75;20.48;;;;;;;23.43;82.73;99382.84;1599153;89;21359;-80
2021/07/18 02:44:41;;;;;;;29.25;19.07;;;;;;;23.65;81.65;99388.95;1599383;89;21371;-80
2021/07/18 02:47:47;;;;;;;30.95;19.23;;;;;;;23.89;80.61;99391.09;1599887;89;21776;-80
2021/07/18 02:50:54;;;;;;;32.80;19.25;;;;;;;24.14;79.51;99387.36;1599685;89;21236;-79
2021/07/18 02:54:00;;;;;;;37.13;20.05;;;;;;;24.39;78.50;99390.58;1598673;89;21240;-80
2021/07/18 02:57:07;;;;;;;31.25;20.45;;;;;;;24.65;77.27;99390.65;1598598;89;21403;-80
2021/07/18 03:00:18;;;;;;;25.62;17.25;;;;;;;24.91;75.91;99386.27;1598883;89;21249;-80
2021/07/18 03:03:23;;;;;;;29.92;18.25;;;;;;;25.11;74.85;99391.69;1597432;90;21301;-80
2021/07/18 03:55:56;;;;;;;20.30;14.07;;;;;;;27.51;65.99;99382.11;1810333;79;28202;-80
2021/07/18 03:59:02;;;;;;;26.90;14.25;;;;;;;27.55;65.31;99385.72;1809408;79;21168;-80
2021/07/18 04:02:07;;;;;;;22.73;12.78;;;;;;;27.60;64.77;99383.63;1809446;79;21282;-81
2021/07/18 04:05:13;;;;;;;24.55;12.85;;;;;;;27.62;64.52;99379.09;1808023;79;21818;-80
2021/07/18 04:08:21;;;;;;;17.85;11.78;;;;;;;27.58;64.40;99378.91;1783652;80;21734;-80
2021/07/18 04:11:27;;;;;;;30.30;13.98;;;;;;;27.56;64.64;99383.16;1785982;80;21212;-80
2021/07/18 04:14:34;;;;;;;23.07;12.53;;;;;;;27.47;64.46;99383.87;1784695;80;21188;-80
2021/07/18 04:17:40;;;;;;;22.93;13.28;;;;;;;27.41;65.04;99384.30;1785476;80;21350;-80
2021/07/18 04:20:46;;;;;;;24.67;12.98;;;;;;;27.40;65.50;99387.67;1785218;80;21310;-80
2021/07/18 04:23:52;;;;;;;24.05;13.50;;;;;;;27.44;65.29;99387.33;1785139;79;21398;-80
2021/07/18 04:26:57;;;;;;;25.23;14.18;;;;;;;27.58;64.96;99383.70;1785324;80;21180;-80
2021/07/18 04:30:03;;;;;;;21.33;12.82;;;;;;;27.72;64.81;99383.98;1785336;80;21872;-80
2021/07/18 04:33:08;;;;;;;25.37;12.43;;;;;;;27.88;63.93;99384.49;1785213;80;21346;-80
2021/07/18 04:36:13;;;;;;;22.37;12.45;;;;;;;28.06;63.61;99388.33;1785173;80;21177;-83
2021/07/18 06:11:50;;;;;;;13.30;6.50;;;;;;;31.78;48.21;99398.68;1765032;79;28293;-78
2021/07/18 06:14:57;;;;;;;16.55;6.53;;;;;;;32.01;48.31;99402.68;1725179;82;21279;-79
2021/07/18 06:18:02;;;;;;;12.47;6.90;;;;;;;32.24;48.23;99403.21;1736478;82;21950;-80
2021/07/18 06:21:08;;;;;;;17.07;8.23;;;;;;;32.36;47.36;99397.63;1732980;81;21196;-80
2021/07/18 06:24:14;;;;;;;16.60;8.43;;;;;;;32.45;47.65;99391.94;1733795;83;21275;-80
2021/07/18 06:27:19;;;;;;;19.52;8.05;;;;;;;32.55;48.84;99390.92;1734015;83;21313;-77
2021/07/18 06:30:24;;;;;;;12.60;8.50;;;;;;;32.60;47.18;99389.89;1733382;81;21236;-88
2021/07/18 06:33:30;;;;;;;13.93;7.92;;;;;;;32.65;47.62;99388.27;1733923;83;21204;-79
2021/07/18 06:36:36;;;;;;;14.55;7.33;;;;;;;32.73;46.97;99389.38;1733005;81;21306;-87
2021/07/18 06:39:42;;;;;;;18.40;7.50;;;;;;;32.73;46.28;99382.30;1732492;81;21314;-79
2021/07/18 06:42:48;;;;;;;12.10;7.65;;;;;;;32.76;45.98;99389.52;1732671;83;21358;-87
2021/07/18 06:45:54;;;;;;;12.45;7.37;;;;;;;32.73;45.79;99383.13;1733490;81;21203;-80
2021/07/18 06:48:59;;;;;;;11.28;7.12;;;;;;;32.64;45.49;99383.78;1733864;83;21271;-80
2021/07/18 06:52:05;;;;;;;15.45;7.08;;;;;;;32.65;45.87;99379.77;1732682;81;21212;-80
2021/07/18 06:55:13;;;;;;;14.80;7.65;;;;;;;32.70;45.07;99381.01;1732532;81;21156;-87
2021/07/18 06:58:18;;;;;;;16.12;7.78;;;;;;;32.71;45.69;99378.41;1733961;83;21287;-80
2021/07/18 07:01:24;;;;;;;21.27;8.73;;;;;;;32.71;46.06;99375.58;1733001;81;21164;-80
2021/07/18 07:04:29;;;;;;;9.20;6.95;;;;;;;32.69;45.80;99377.91;1734125;83;21272;-87
2021/07/18 07:07:35;;;;;;;11.97;7.35;;;;;;;32.71;46.37;99380.42;1734149;83;21287;-87
2021/07/18 07:10:40;;;;;;;12.07;5.58;;;;;;;32.76;46.97;99371.70;1731522;81;21184;-80
2021/07/18 07:13:46;;;;;;;7.58;4.33;;;;;;;32.80;44.03;99372.08;1705398;84;21282;-88
2021/07/18 07:16:52;;;;;;;11.38;4.20;;;;;;;32.93;42.05;99374.39;1704443;84;21214;-86
2021/07/18 07:19:57;;;;;;;13.83;4.60;;;;;;;32.90;40.17;99362.36;1705474;84;21266;-78
2021/07/18 07:23:03;;;;;;;9.38;5.17;;;;;;;32.90;40.29;99368.58;1705339;84;21288;-79
2021/07/18 07:26:09;;;;;;;11.20;4.62;;;;;;;32.81;40.80;99369.48;1704650;83;21317;-87
2021/07/18 07:29:15;;;;;;;10.32;5.80;;;;;;;32.78;40.88;99367.93;1704247;84;21321;-87
2021/07/18 07:32:21;;;;;;;15.20;5.87;;;;;;;32.82;40.74;99364.05;1704195;84;21323;-80
2021/07/18 07:35:26;;;;;;;14.00;5.87;;;;;;;32.91;41.16;99373.09;1705169;84;21321;-79
2021/07/18 07:38:32;;;;;;;13.72;6.10;;;;;;;32.91;40.60;99372.50;1705565;84;21878;-85
2021/07/18 07:41:38;;;;;;;21.90;6.83;;;;;;;32.93;42.25;99365.89;1704364;83;21353;-79
2021/07/18 07:44:45;;;;;;;12.98;5.80;;;;;;;33.00;42.54;99366.76;1705423;84;21346;-79
2021/07/18 07:47:51;;;;;;;12.18;6.33;;;;;;;33.08;42.44;99368.69;1705572;84;21175;-87
2021/07/18 07:50:57;;;;;;;13.80;6.08;;;;;;;33.08;41.48;99371.52;1705012;84;21845;-79
2021/07/18 07:54:02;;;;;;;13.95;5.95;;;;;;;33.13;42.73;99371.30;1704019;84;21839;-80
2021/07/18 07:57:08;;;;;;;13.32;5.30;;;;;;;33.23;42.39;99376.52;1704705;83;21357;-87
2021/07/18 08:00:18;;;;;;;16.02;5.22;;;;;;;33.25;40.41;99383.23;1705286;84;21755;-88
2021/07/18 08:03:24;;;;;;;16.12;5.20;;;;;;;33.23;40.88;99374.27;1705636;84;21282;-79
2021/07/18 08:06:30;;;;;;;10.75;5.12;;;;;;;33.27;41.24;99380.89;1704476;84;21873;-79
2021/07/18 08:09:35;;;;;;;13.75;5.42;;;;;;;33.30;40.02;99385.25;1705355;84;21293;-79
2021/07/18 08:12:41;;;;;;;9.28;4.28;;;;;;;33.31;40.08;99389.77;1717691;82;21236;-80
2021/07/18 08:15:47;;;;;;;14.45;5.30;;;;;;;33.25;39.25;99380.40;1732958;81;21306;-87
2021/07/18 08:18:52;;;;;;;10.78;4.72;;;;;;;33.25;39.49;99381.81;1733446;83;21327;-79
2021/07/18 08:21:58;;;;;;;11.08;4.25;;;;;;;33.27;39.89;99380.30;1732125;81;21318;-79
2021/07/18 08:25:03;;;;;;;14.53;3.90;;;;;;;33.27;40.64;99384.55;1733560;81;21886;-79
2021/07/18 08:28:07;;;;;;;12.47;4.03;;;;;;;33.27;38.40;99382.31;1733327;81;21311;-79
2021/07/18 08:31:13;;;;;;;6.67;3.75;;;;;;;33.27;37.24;99377.47;1733612;81;21853;-79
2021/07/18 08:34:19;;;;;;;11.53;4.03;;;;;;;33.25;37.04;99386.89;1733457;83;21318;-79
2021/07/18 08:37:25;;;;;;;12.20;3.75;;;;;;;33.24;37.27;99390.91;1733536;83;21283;-87
2021/07/18 08:40:30;;;;;;;7.87;4.25;;;;;;;33.23;37.99;99383.59;1733187;81;21346;-88
2021/07/18 08:43:36;;;;;;;13.68;4.00;;;;;;;33.18;37.34;99383.81;1733462;82;21339;-88
2021/07/18 08:46:42;;;;;;;10.65;3.60;;;;;;;33.13;37.68;99382.63;1718018;82;21362;-79
2021/07/18 08:49:48;;;;;;;10.85;3.62;;;;;;;33.09;37.68;99387.33;1719005;81;21184;-88
2021/07/18 08:53:03;;;;;;;11.83;4.00;;;;;;;33.05;38.57;99388.61;1732568;83;21176;-77
2021/07/18 08:56:08;;;;;;;16.65;4.55;;;;;;;33.04;36.92;99384.72;1732799;81;21821;-88
2021/07/18 08:59:14;;;;;;;12.58;3.83;;;;;;;33.13;37.25;99386.05;1733638;83;21303;-87
2021/07/18 09:02:22;;;;;;;12.90;4.10;;;;;;;33.14;37.89;99384.27;1733094;83;21228;-87
2021/07/18 09:05:27;;;;;;;9.53;3.60;;;;;;;33.14;36.81;99380.61;1733114;81;21757;-79
2021/07/18 09:08:35;;;;;;;12.40;3.65;;;;;;;33.17;36.94;99382.17;1733456;83;21278;-79
2021/07/18 09:11:40;;;;;;;10.85;3.60;;;;;;;33.18;37.18;99380.98;1717203;82;21880;-79
2021/07/18 09:14:49;;;;;;;10.72;3.52;;;;;;;33.16;36.70;99383.32;1710346;81;21882;-88
2021/07/18 09:17:54;;;;;;;8.13;3.33;;;;;;;33.08;36.16;99375.77;1705629;84;21826;-88
2021/07/18 09:21:05;;;;;;;12.15;3.58;;;;;;;33.05;35.75;99372.20;1704670;84;21341;-80
2021/07/18 09:24:27;;;;;;;11.25;3.72;;;;;;;33.02;35.88;99381.39;1705405;84;21289;-79
2021/07/18 09:27:40;;;;;;;12.80;3.80;;;;;;;33.01;36.12;99375.48;1705194;83;21317;-79
2021/07/18 09:30:45;;;;;;;10.55;3.58;;;;;;;32.99;36.70;99377.86;1705500;84;21226;-79
2021/07/18 09:33:50;;;;;;;8.80;4.22;;;;;;;32.97;35.63;99371.10;1704218;84;21298;-80
2021/07/18 09:36:57;;;;;;;10.98;3.70;;;;;;;32.96;36.80;99365.20;1704449;84;21316;-88
2021/07/18 09:40:10;;;;;;;9.48;4.10;;;;;;;32.93;36.94;99372.15;1704216;84;21317;-79
2021/07/18 09:43:15;;;;;;;16.55;3.72;;;;;;;32.89;37.95;99373.98;1704705;83;21195;-79
2021/07/18 09:46:20;;;;;;;14.15;3.98;;;;;;;32.91;38.09;99375.93;1704533;84;21814;-86
2021/07/18 09:49:40;;;;;;;5.65;3.35;;;;;;;32.87;37.49;99377.77;1704186;84;21199;-80
2021/07/18 09:52:51;;;;;;;10.50;4.45;;;;;;;32.75;38.61;99383.63;1705176;84;21312;-80
2021/07/18 09:56:09;;;;;;;11.38;4.15;;;;;;;32.67;38.39;99379.45;1704747;84;21305;-80
2021/07/18 09:59:14;;;;;;;10.88;4.20;;;;;;;32.68;38.06;99391.83;1704680;83;21305;-88
2021/07/18 10:02:19;;;;;;;16.48;4.62;;;;;;;32.70;37.89;99381.56;1705449;84;21329;-88
2021/07/18 10:05:36;;;;;;;10.75;4.33;;;;;;;32.75;38.51;99390.70;1685648;84;21341;-87
2021/07/18 10:08:50;;;;;;;15.00;4.10;;;;;;;32.80;37.76;99389.66;1705469;84;21290;-79
2021/07/18 10:11:55;;;;;;;8.53;4.30;;;;;;;32.83;39.33;99378.45;1704318;84;21714;-87
2021/07/18 10:15:02;;;;;;;15.55;4.15;;;;;;;32.89;38.92;99371.16;1699621;81;21294;-87
2021/07/18 10:18:08;;;;;;;13.95;4.28;;;;;;;32.93;39.63;99374.98;1731831;83;21278;-79
2021/07/18 10:21:20;;;;;;;7.28;3.72;;;;;;;32.93;38.57;99367.90;1732029;81;22193;-77
2021/07/18 10:24:24;;;;;;;11.93;3.85;;;;;;;32.95;39.09;99376.89;1733536;83;21200;-77
2021/07/18 10:27:30;;;;;;;8.03;3.87;;;;;;;32.99;36.81;99384.94;1733328;83;21303;-77
2021/07/18 10:30:38;;;;;;;13.13;3.98;;;;;;;33.00;38.25;99375.26;1732070;81;21307;-78
2021/07/18 10:33:43;;;;;;;10.82;4.17;;;;;;;33.02;38.39;99374.30;1732818;83;21267;-80
2021/07/18 10:36:49;;;;;;;9.43;3.65;;;;;;;33.07;39.34;99368.42;1732246;81;21208;-80
2021/07/18 10:39:56;;;;;;;13.03;4.25;;;;;;;33.04;37.89;99375.63;1718311;81;21793;-87
2021/07/18 10:43:04;;;;;;;10.03;3.92;;;;;;;32.98;37.92;99386.09;1718958;83;21322;-88
2021/07/18 10:46:16;;;;;;;12.23;3.90;;;;;;;32.97;38.21;99376.77;1732745;81;21823;-88
2021/07/18 10:49:22;;;;;;;8.15;3.50;;;;;;;33.02;37.97;99373.71;1733513;83;21760;-80
2021/07/18 10:52:30;;;;;;;13.53;4.45;;;;;;;33.05;37.22;99382.94;1733409;83;21287;-81
2021/07/18 10:55:37;;;;;;;9.45;3.60;;;;;;;33.06;38.28;99378.92;1733308;81;21231;-80
2021/07/18 10:58:53;;;;;;;5.55;2.92;;;;;;;33.06;38.68;99377.51;1733286;82;21239;-80
2021/07/18 11:02:13;;;;;;;8.63;3.30;;;;;;;33.10;37.21;99368.32;1732262;81;21310;-80
2021/07/18 11:05:23;;;;;;;10.38;3.00;;;;;;;33.11;38.70;99368.55;1727469;81;21256;-89
2021/07/18 11:08:29;;;;;;;7.87;2.95;;;;;;;33.10;38.34;99366.91;1732383;83;21172;-88
2021/07/18 11:11:48;;;;;;;13.88;3.67;;;;;;;33.09;37.58;99361.84;1731946;81;21759;-81
2021/07/18 11:14:55;;;;;;;9.65;4.03;;;;;;;33.09;38.95;99366.67;1731983;81;21204;-80
2021/07/18 11:18:25;;;;;;;13.03;3.62;;;;;;;33.16;37.63;99357.83;1732127;82;21172;-86
2021/07/18 11:21:37;;;;;;;;;;;;;;;33.24;38.28;99352.66;1735529;81;21836;-86
2021/07/18 11:25:00;;;;;;;12.45;3.72;;;;;;;33.29;38.35;99352.43;1733670;81;20235;-86
2021/07/18 11:28:06;;;;;;;7.28;3.60;;;;;;;33.16;37.77;99340.83;1733442;83;21282;-87
2021/07/18 11:31:26;;;;;;;8.53;3.52;;;;;;;33.11;39.11;99341.05;1731506;81;21310;-88
2021/07/18 11:34:31;;;;;;;7.78;3.17;;;;;;;33.09;37.83;99332.69;1733140;83;21282;-88
2021/07/18 11:37:40;;;;;;;8.58;3.90;;;;;;;33.06;39.06;99334.20;1733671;83;21292;-88
2021/07/18 11:40:46;;;;;;;6.85;3.30;;;;;;;33.10;40.52;99343.66;1733099;81;21310;-87
2021/07/18 11:43:53;;;;;;;11.18;3.40;;;;;;;33.20;38.40;99336.71;1733439;83;21156;-88
2021/07/18 11:46:59;;;;;;;9.28;3.50;;;;;;;33.25;37.68;99342.97;1732296;81;21279;-87
2021/07/18 11:50:05;;;;;;;10.40;3.37;;;;;;;33.28;36.87;99351.38;1733483;81;21852;-87
2021/07/18 11:53:10;;;;;;;5.83;3.10;;;;;;;33.29;37.95;99343.93;1719212;83;21811;-88
2021/07/18 11:56:29;;;;;;;8.93;3.33;;;;;;;33.36;36.68;99334.02;1732347;81;21827;-89
2021/07/18 11:59:28;;;;;;;9.28;3.30;;;;;;;33.31;37.72;99340.17;1733389;83;21367;-88
2021/07/18 12:02:21;;;;;;;9.80;3.55;;;;;;;33.20;39.20;99346.03;1733413;83;21208;-88
2021/07/18 12:05:27;;;;;;;7.85;3.22;;;;;;;33.13;39.88;99345.80;1732836;81;21299;-88
2021/07/18 12:08:32;;;;;;;8.18;3.70;;;;;;;33.00;39.29;99346.34;1733454;83;21283;-89
2021/07/18 12:11:38;;;;;;;10.70;3.47;;;;;;;32.86;39.30;99335.05;1732581;81;21183;-89
2021/07/18 12:14:43;;;;;;;14.40;3.92;;;;;;;32.83;40.13;99337.39;1733360;81;21366;-88
2021/07/18 12:17:49;;;;;;;10.95;4.05;;;;;;;32.88;39.53;99327.84;1732534;82;21191;-87
2021/07/18 12:20:55;;;;;;;6.58;3.50;;;;;;;32.93;39.20;99322.00;1733013;81;21350;-89
2021/07/18 12:24:31;;;;;;;8.40;3.40;;;;;;;32.98;40.24;99323.78;1732121;83;21204;-89
2021/07/18 12:27:37;;;;;;;9.38;3.92;;;;;;;33.03;39.39;99334.33;1733694;83;21851;-88
2021/07/18 12:30:44;;;;;;;11.33;3.42;;;;;;;33.02;39.44;99333.23;1733017;81;21310;-80
2021/07/18 12:33:49;;;;;;;7.75;3.35;;;;;;;33.05;40.59;99332.55;1733456;83;21275;-80
2021/07/18 12:37:21;;;;;;;12.07;3.25;;;;;;;33.09;39.33;99346.25;1732126;81;21371;-80
2021/07/18 12:40:29;;;;;;;17.25;3.37;;;;;;;33.14;38.08;99345.20;1733107;81;21294;-88
2021/07/18 12:43:35;;;;;;;7.27;3.47;;;;;;;33.21;38.38;99341.19;1733633;83;21314;-88
2021/07/18 12:46:43;;;;;;;7.83;3.65;;;;;;;33.20;37.28;99334.70;1732237;81;21187;-88
2021/07/18 12:49:48;;;;;;;7.37;3.20;;;;;;;33.19;37.31;99334.47;1733482;81;21335;-79
2021/07/18 12:53:15;;;;;;;9.98;3.33;;;;;;;33.20;37.51;99329.63;1733301;83;21283;-78
2021/07/18 12:56:20;;;;;;;12.90;3.40;;;;;;;33.13;38.08;99324.55;1732108;81;21840;-88
2021/07/18 12:59:35;;;;;;;23.27;5.70;;;;;;;33.13;38.29;99327.38;1733518;83;21249;-89
2021/07/18 13:02:41;;;;;;;16.10;4.97;;;;;;;33.07;41.67;99330.18;1732544;81;21252;-88
2021/07/18 13:05:48;;;;;;;19.00;5.40;;;;;;;32.80;42.66;99338.70;1732785;81;21331;-79
2021/07/18 13:09:01;;;;;;;14.15;5.28;;;;;;;32.39;43.47;99340.97;1733490;83;21168;-79
2021/07/18 13:12:09;;;;;;;13.65;5.20;;;;;;;31.99;45.00;99341.38;1732047;83;21721;-79
2021/07/18 13:15:27;;;;;;;21.60;5.87;;;;;;;31.59;46.25;99342.33;1732021;81;21823;-79
2021/07/18 13:18:44;;;;;;;18.70;5.83;;;;;;;31.21;47.91;99343.11;1719373;82;21630;-88
2021/07/18 13:21:50;;;;;;;10.32;5.25;;;;;;;30.80;50.04;99337.47;1704464;84;21281;-86
2021/07/18 13:24:57;;;;;;;21.07;5.62;;;;;;;30.44;50.93;99340.60;1705622;84;21199;-86
2021/07/18 13:28:13;;;;;;;19.12;5.65;;;;;;;30.08;51.99;99343.72;1704134;84;21277;-78
2021/07/18 13:31:16;;;;;;;14.00;5.45;;;;;;;29.77;52.61;99339.81;1703987;83;21865;-77
2021/07/18 13:34:22;;;;;;;13.13;5.95;;;;;;;29.58;52.61;99339.26;1705346;84;21278;-77
2021/07/18 13:37:47;;;;;;;18.35;5.72;;;;;;;29.46;52.69;99337.63;1705532;84;21288;-77
2021/07/18 13:40:53;;;;;;;16.27;5.65;;;;;;;29.39;53.16;99334.43;1705400;84;21329;-86
2021/07/18 13:43:59;;;;;;;15.03;6.40;;;;;;;29.35;53.44;99327.20;1705667;84;21286;-86
2021/07/18 13:47:05;;;;;;;17.05;6.53;;;;;;;29.40;53.89;99320.59;1704111;83;21365;-77
2021/07/18 13:50:12;;;;;;;19.98;6.42;;;;;;;29.43;54.42;99323.59;1704174;84;21218;-79
2021/07/18 13:53:11;;;;;;;16.87;6.20;;;;;;;29.46;55.77;99324.95;1705556;84;21830;-80
2021/07/18 13:56:18;;;;;;;22.13;6.97;;;;;;;29.47;55.62;99309.70;1704541;84;21309;-80
2021/07/18 13:59:24;;;;;;;15.93;7.17;;;;;;;29.49;56.58;99308.78;1705420;84;21302;-79
2021/07/18 14:02:30;;;;;;;16.80;6.80;;;;;;;29.54;56.81;99310.05;1704945;83;21309;-79
2021/07/18 14:05:37;;;;;;;22.42;6.58;;;;;;;29.60;57.01;99303.16;1705109;84;21353;-88
2021/07/18 14:08:44;;;;;;;8.28;5.33;;;;;;;29.67;56.36;99306.89;1704044;84;21289;-79
2021/07/18 14:11:49;;;;;;;10.38;4.97;;;;;;;29.79;54.85;99299.47;1704186;84;21203;-80
2021/07/18 14:14:57;;;;;;;9.38;5.00;;;;;;;29.95;53.13;99308.86;1703983;84;21195;-79
2021/07/18 14:18:03;;;;;;;10.58;4.90;;;;;;;30.08;51.88;99292.37;1704208;83;21917;-79
2021/07/18 14:21:08;;;;;;;9.55;4.75;;;;;;;30.23;51.02;99296.73;1735480;81;21319;-88
2021/07/18 14:24:13;;;;;;;9.70;4.70;;;;;;;30.34;51.28;99292.98;1736291;82;21279;-79
2021/07/18 14:27:19;;;;;;;11.50;4.67;;;;;;;30.45;50.58;99283.05;1735032;82;21204;-88
2021/07/18 14:30:32;;;;;;;11.68;5.47;;;;;;;30.55;51.18;99281.28;1735159;81;21859;-88
2021/07/18 14:33:37;;;;;;;9.20;4.17;;;;;;;30.63;50.14;99277.63;1735526;81;21954;-88
2021/07/18 14:36:43;;;;;;;12.05;4.40;;;;;;;30.72;49.69;99273.38;1734921;81;21318;-80
2021/07/18 14:39:49;;;;;;;15.20;4.70;;;;;;;30.78;48.81;99272.89;1734977;81;21207;-79
2021/07/18 14:42:55;;;;;;;15.53;4.97;;;;;;;30.84;48.52;99272.70;1736470;82;21216;-88
2021/07/18 14:46:00;;;;;;;11.03;4.53;;;;;;;30.88;47.63;99272.28;1735893;81;21318;-88
2021/07/18 14:49:06;;;;;;;17.80;4.20;;;;;;;30.88;46.40;99268.87;1735718;81;21299;-88
2021/07/18 14:52:13;;;;;;;8.75;4.42;;;;;;;30.89;46.82;99280.99;1736546;82;21773;-88
2021/07/18 14:55:19;;;;;;;9.03;4.00;;;;;;;30.90;47.04;99279.23;1736239;81;21298;-80
2021/07/18 14:58:24;;;;;;;11.95;4.65;;;;;;;30.91;47.34;99275.83;1736528;82;21202;-80
2021/07/18 15:01:31;;;;;;;16.05;4.65;;;;;;;30.91;46.93;99275.83;1736468;81;21251;-88
2021/07/18 15:04:36;;;;;;;6.15;4.10;;;;;;;30.89;46.04;99274.77;1735178;81;21299;-79
2021/07/18 15:07:42;;;;;;;7.80;4.20;;;;;;;30.90;46.11;99276.41;1736329;82;21299;-79
2021/07/18 15:10:54;;;;;;;12.30;4.05;;;;;;;30.90;46.11;99281.23;1735934;81;21867;-88
2021/07/18 15:13:56;;;;;;;14.58;4.42;;;;;;;30.89;45.89;99279.58;1735459;82;21171;-88
2021/07/18 15:17:03;;;;;;;17.07;4.87;;;;;;;30.89;46.10;99280.99;1734864;81;21262;-87
2021/07/18 15:20:10;;;;;;;15.45;4.28;;;;;;;30.87;46.41;99274.28;1735154;81;21838;-89
2021/07/18 15:23:16;;;;;;;12.70;4.45;;;;;;;30.88;46.13;99276.52;1733657;83;21164;-89
2021/07/18 15:26:22;;;;;;;7.25;4.00;;;;;;;30.86;46.26;99277.42;1732718;81;21930;-87
2021/07/18 15:29:27;;;;;;;7.28;4.10;;;;;;;30.85;46.05;99270.13;1733627;83;21290;-88
2021/07/18 15:32:33;;;;;;;19.62;4.85;;;;;;;30.85;46.12;99274.36;1733367;83;21259;-88
2021/07/18 15:35:39;;;;;;;11.20;4.45;;;;;;;30.84;46.52;99274.12;1733135;81;21350;-86
2021/07/18 15:38:45;;;;;;;12.00;5.05;;;;;;;30.80;46.75;99271.95;1732826;83;21827;-87
2021/07/18 15:41:51;;;;;;;17.60;4.70;;;;;;;30.80;46.34;99276.78;1732250;81;21196;-86
2021/07/18 15:44:56;;;;;;;7.25;4.15;;;;;;;30.77;45.89;99275.47;1733725;81;21283;-89
2021/07/18 15:48:01;;;;;;;9.85;4.25;;;;;;;30.76;46.54;99282.25;1732138;83;21354;-89
2021/07/18 15:51:07;;;;;;;14.87;4.35;;;;;;;30.74;46.61;99283.19;1732174;81;21728;-79
2021/07/18 15:54:14;;;;;;;12.95;4.40;;;;;;;30.71;47.17;99288.08;1733637;83;21279;-89
2021/07/18 15:57:20;;;;;;;7.97;4.00;;;;;;;30.70;47.65;99296.27;1732114;83;21290;-89
2021/07/18 16:00:25;;;;;;;11.55;4.75;;;;;;;30.66;48.15;99293.88;1733420;81;21731;-88
2021/07/18 16:03:31;;;;;;;16.42;4.45;;;;;;;30.63;48.70;99294.56;1733732;83;21288;-89
2021/07/18 16:06:55;;;;;;;12.37;4.83;;;;;;;30.59;49.40;99299.20;1753761;82;21313;-88
2021/07/18 16:10:00;;;;;;;16.17;4.95;;;;;;;30.54;49.66;99292.33;1755096;82;21385;-88
2021/07/18 16:13:07;;;;;;;13.28;5.05;;;;;;;30.49;50.12;99298.97;1731940;83;21172;-88
2021/07/18 16:16:14;;;;;;;12.65;4.87;;;;;;;30.45;50.63;99297.98;1753680;82;21682;-89
2021/07/18 16:19:20;;;;;;;12.85;5.00;;;;;;;30.41;50.78;99294.73;1753716;80;21203;-88
2021/07/18 16:22:26;;;;;;;10.28;4.60;;;;;;;30.33;50.81;99298.38;1754549;82;21354;-88
2021/07/18 16:25:31;;;;;;;17.77;4.78;;;;;;;30.26;50.58;99301.13;1754591;82;21207;-89
2021/07/18 16:28:37;;;;;;;11.70;5.30;;;;;;;30.20;50.54;99302.44;1754578;82;21324;-89
2021/07/18 16:31:43;;;;;;;9.18;4.80;;;;;;;30.12;50.45;99298.19;1753910;82;21358;-88
2021/07/18 16:34:48;;;;;;;10.40;4.90;;;;;;;30.03;50.57;99296.19;1754502;82;21314;-79
2021/07/18 16:37:54;;;;;;;13.30;4.75;;;;;;;29.96;50.67;99307.11;1730225;83;21172;-89
2021/07/18 16:40:59;;;;;;;8.40;4.85;;;;;;;29.89;50.90;99314.41;1753578;82;21326;-89
2021/07/18 16:44:04;;;;;;;22.50;5.53;;;;;;;29.81;51.35;99313.80;1754924;82;21341;-89
2021/07/18 16:47:11;;;;;;;20.43;5.58;;;;;;;29.63;52.16;99316.56;1754737;82;21306;-79
2021/07/18 16:50:15;;;;;;;14.55;4.67;;;;;;;29.63;52.16;99316.56;1726702;83;21390;-89
2021/07/18 16:53:21;;;;;;;16.97;5.37;;;;;;;29.54;52.80;99316.53;1755224;82;21275;-89